createdAt,value
2022-10-18T00:00:48.856Z,10.02
2022-10-18T00:02:20.559Z,10.70
2022-10-18T00:03:52.392Z,11.38
2022-10-18T00:05:24.074Z,11.13
2022-10-18T00:06:55.686Z,9.63
2022-10-18T00:08:28.045Z,11.10
2022-10-18T00:09:59.714Z,11.68
2022-10-18T00:11:31.578Z,11.70
2022-10-18T00:13:03.373Z,11.25
2022-10-18T00:14:36.405Z,9.77
2022-10-18T00:16:12.757Z,11.75
2022-10-18T00:17:44.726Z,12.35
2022-10-18T00:19:16.622Z,11.18
2022-10-18T00:20:57.246Z,11.07
2022-10-18T00:22:29.217Z,9.48
2022-10-18T00:24:01.559Z,11.05
2022-10-18T00:25:33.147Z,12.40
2022-10-18T00:27:04.791Z,10.82
2022-10-18T00:28:36.538Z,11.35
2022-10-18T00:30:10.509Z,12.52
2022-10-18T00:31:43.855Z,10.85
2022-10-18T00:33:15.729Z,12.25
2022-10-18T00:34:47.617Z,11.70
2022-10-18T00:36:19.367Z,11.57
2022-10-18T00:37:50.969Z,12.43
2022-10-18T00:39:22.685Z,11.57
2022-10-18T00:40:54.299Z,12.88
2022-10-18T00:42:30.671Z,13.93
2022-10-18T00:44:04.919Z,11.40
2022-10-18T00:45:37.928Z,11.38
2022-10-18T00:47:11.742Z,11.25
2022-10-18T00:48:43.607Z,11.50
2022-10-18T00:50:16.031Z,13.18
2022-10-18T00:51:51.641Z,14.75
2022-10-18T00:53:23.834Z,12.30
2022-10-18T00:54:56.645Z,12.48
2022-10-18T00:56:29.336Z,11.77
2022-10-18T00:58:02.001Z,12.77
2022-10-18T00:59:34.961Z,11.60
2022-10-18T01:01:08.160Z,11.80
2022-10-18T01:02:42.041Z,11.10
2022-10-18T01:04:15.093Z,12.70
2022-10-18T01:05:47.888Z,13.63
2022-10-18T01:07:31.069Z,12.02
2022-10-18T01:09:13.545Z,12.30
2022-10-18T01:11:05.209Z,10.60
2022-10-18T01:12:47.942Z,12.20
2022-10-18T01:14:34.127Z,10.77
2022-10-18T01:16:17.176Z,11.55
2022-10-18T01:17:59.378Z,13.27
2022-10-18T01:19:53.132Z,12.30
2022-10-18T01:21:36.238Z,13.77
2022-10-18T01:23:15.467Z,11.98
2022-10-18T01:25:04.141Z,12.45
2022-10-18T01:26:54.565Z,15.18
2022-10-18T01:28:42.154Z,15.07
2022-10-18T01:30:36.445Z,15.20
2022-10-18T01:32:12.985Z,13.10
2022-10-18T01:33:50.961Z,14.02
2022-10-18T01:35:29.430Z,16.17
2022-10-18T01:37:04.647Z,15.80
2022-10-18T01:38:38.574Z,13.88
2022-10-18T01:40:14.383Z,14.43
2022-10-18T01:41:49.097Z,15.25
2022-10-18T01:43:24.222Z,15.25
2022-10-18T01:44:56.997Z,14.02
2022-10-18T01:46:30.148Z,16.42
2022-10-18T01:48:03.028Z,14.27
2022-10-18T01:49:34.700Z,17.02
2022-10-18T01:51:06.450Z,13.50
2022-10-18T01:52:48.545Z,16.95
2022-10-18T01:54:27.529Z,15.27
2022-10-18T01:56:34.580Z,15.23
2022-10-18T01:58:16.985Z,15.73
2022-10-18T01:59:54.794Z,17.30
2022-10-18T02:01:38.667Z,18.48
2022-10-18T02:03:17.764Z,16.83
2022-10-18T02:04:54.360Z,16.45
2022-10-18T02:06:31.696Z,15.88
2022-10-18T02:08:19.265Z,17.77
2022-10-18T02:10:01.233Z,14.93
2022-10-18T02:11:36.373Z,15.05
2022-10-18T02:13:09.176Z,15.77
2022-10-18T02:14:43.768Z,15.25
2022-10-18T02:16:19.519Z,17.55
2022-10-18T02:17:53.767Z,17.17
2022-10-18T02:19:29.910Z,16.75
2022-10-18T02:21:03.418Z,16.60
2022-10-18T02:22:37.141Z,16.10
2022-10-18T02:24:10.978Z,15.90
2022-10-18T02:25:42.628Z,18.35
2022-10-18T02:27:14.721Z,17.50
2022-10-18T02:28:46.621Z,16.38
2022-10-18T02:30:21.276Z,20.15
2022-10-18T02:32:03.370Z,17.05
2022-10-18T02:33:43.886Z,16.30
2022-10-18T02:35:20.289Z,21.70
2022-10-18T02:36:55.046Z,17.02
2022-10-18T02:38:28.719Z,15.80
2022-10-18T02:40:01.399Z,16.50
2022-10-18T02:41:33.701Z,17.40
2022-10-18T02:43:06.875Z,17.90
2022-10-18T02:44:39.328Z,18.38
2022-10-18T02:46:11.206Z,17.58
2022-10-18T02:47:43.543Z,17.50
2022-10-18T02:49:16.813Z,17.55
2022-10-18T02:50:48.606Z,18.92
2022-10-18T02:52:20.230Z,18.90
2022-10-18T02:53:52.060Z,17.80
2022-10-18T02:55:23.708Z,18.40
2022-10-18T02:56:55.584Z,17.92
2022-10-18T02:58:27.199Z,19.63
2022-10-18T02:59:59.210Z,18.77
2022-10-18T03:01:33.000Z,20.15
2022-10-18T03:03:04.736Z,18.98
2022-10-18T03:04:38.659Z,19.20
2022-10-18T03:06:10.572Z,21.60
2022-10-18T03:07:42.275Z,19.85
2022-10-18T03:09:13.930Z,18.35
2022-10-18T03:10:45.832Z,22.20
2022-10-18T03:12:17.451Z,18.80
2022-10-18T03:13:50.956Z,20.75
2022-10-18T03:15:22.570Z,20.70
2022-10-18T03:16:54.244Z,20.15
2022-10-18T03:18:25.969Z,17.30
2022-10-18T03:19:58.943Z,20.23
2022-10-18T03:21:30.613Z,21.30
2022-10-18T03:23:03.263Z,24.98
2022-10-18T03:24:34.910Z,25.13
2022-10-18T03:26:06.533Z,22.17
2022-10-18T03:27:38.156Z,20.92
2022-10-18T03:29:10.326Z,21.08
2022-10-18T03:30:42.073Z,21.95
2022-10-18T03:32:13.705Z,21.45
2022-10-18T03:33:46.012Z,23.05
2022-10-18T03:35:19.007Z,22.85
2022-10-18T03:36:50.649Z,21.90
2022-10-18T03:38:22.293Z,23.13
2022-10-18T03:39:53.945Z,24.02
2022-10-18T03:41:25.628Z,23.98
2022-10-18T03:42:57.245Z,23.27
2022-10-18T03:44:28.929Z,23.05
2022-10-18T03:46:00.597Z,24.27
2022-10-18T03:47:32.223Z,22.25
2022-10-18T03:49:03.936Z,23.92
2022-10-18T03:50:36.939Z,23.30
2022-10-18T03:52:08.677Z,25.08
2022-10-18T03:53:40.426Z,25.35
2022-10-18T03:55:12.078Z,22.60
2022-10-18T03:56:43.690Z,23.77
2022-10-18T03:58:15.322Z,24.30
2022-10-18T03:59:48.639Z,24.33
2022-10-18T04:01:20.314Z,25.08
2022-10-18T04:02:54.963Z,25.05
2022-10-18T04:04:27.628Z,25.05
2022-10-18T04:06:00.765Z,29.48
2022-10-18T04:07:32.427Z,26.35
2022-10-18T04:09:07.820Z,29.30
2022-10-18T04:10:42.296Z,24.90
2022-10-18T04:12:14.012Z,27.23
2022-10-18T04:13:45.672Z,24.63
2022-10-18T04:15:17.553Z,27.98
2022-10-18T04:16:49.300Z,26.27
2022-10-18T04:18:20.963Z,25.05
2022-10-18T04:19:52.719Z,24.98
2022-10-18T04:21:25.671Z,26.40
2022-10-18T04:22:57.994Z,24.95
2022-10-18T04:24:29.653Z,25.83
2022-10-18T04:26:01.314Z,27.25
2022-10-18T04:27:33.281Z,23.13
2022-10-18T04:29:05.186Z,26.17
2022-10-18T04:30:36.982Z,25.30
2022-10-18T04:32:08.634Z,25.38
2022-10-18T04:33:40.327Z,27.10
2022-10-18T04:35:11.953Z,26.17
2022-10-18T04:36:44.980Z,24.95
2022-10-18T04:38:16.591Z,24.05
2022-10-18T04:39:51.235Z,24.35
2022-10-18T04:41:25.331Z,23.67
2022-10-18T04:42:56.946Z,25.35
2022-10-18T04:44:28.738Z,25.58
2022-10-18T04:46:00.542Z,27.00
2022-10-18T04:47:32.374Z,25.33
2022-10-18T04:49:04.252Z,27.08
2022-10-18T04:50:35.903Z,24.85
2022-10-18T04:52:20.127Z,24.67
2022-10-18T04:53:51.782Z,26.33
2022-10-18T04:55:23.463Z,25.35
2022-10-18T04:56:55.292Z,24.98
2022-10-18T04:58:26.949Z,27.45
2022-10-18T04:59:58.561Z,25.15
2022-10-18T05:01:30.294Z,26.40
2022-10-18T05:03:01.924Z,26.63
2022-10-18T05:04:33.688Z,26.05
2022-10-18T05:06:05.663Z,25.50
2022-10-18T05:07:38.755Z,28.70
2022-10-18T05:09:10.568Z,29.35
2022-10-18T05:10:42.174Z,30.10
2022-10-18T05:12:13.834Z,29.15
2022-10-18T05:13:47.267Z,30.90
2022-10-18T05:15:21.964Z,28.35
2022-10-18T05:16:53.618Z,27.55
2022-10-18T05:18:25.396Z,32.15
2022-10-18T05:19:57.081Z,26.90
2022-10-18T05:21:28.812Z,24.80
2022-10-18T05:23:01.819Z,28.63
2022-10-18T05:24:33.560Z,31.65
2022-10-18T05:26:06.747Z,25.40
2022-10-18T05:27:38.430Z,42.13
2022-10-18T05:29:10.254Z,29.23
2022-10-18T05:30:42.372Z,27.30
2022-10-18T05:32:14.059Z,27.75
2022-10-18T05:33:45.690Z,27.38
2022-10-18T05:35:17.370Z,28.20
2022-10-18T05:36:49.847Z,31.02
2022-10-18T05:38:23.006Z,28.80
2022-10-18T05:39:54.674Z,26.00
2022-10-18T05:41:26.315Z,27.05
2022-10-18T05:42:57.912Z,31.90
2022-10-18T05:44:29.576Z,26.83
2022-10-18T05:46:01.219Z,29.65
2022-10-18T05:47:32.873Z,28.58
2022-10-18T05:49:04.614Z,28.45
2022-10-18T05:50:39.526Z,30.25
2022-10-18T05:52:12.068Z,29.65
2022-10-18T05:53:45.179Z,28.65
2022-10-18T05:55:17.059Z,27.15
2022-10-18T05:56:48.654Z,27.85
2022-10-18T05:58:20.437Z,28.00
2022-10-18T05:59:52.069Z,27.77
2022-10-18T06:01:23.715Z,27.27
2022-10-18T06:02:59.477Z,30.90
2022-10-18T06:04:32.091Z,29.25
2022-10-18T06:06:05.845Z,30.23
2022-10-18T06:07:37.436Z,27.23
2022-10-18T06:09:10.486Z,31.30
2022-10-18T06:10:42.113Z,31.20
2022-10-18T06:12:13.734Z,28.40
2022-10-18T06:13:47.291Z,28.80
2022-10-18T06:15:19.013Z,35.47
2022-10-18T06:16:50.669Z,33.33
2022-10-18T06:18:22.298Z,32.63
2022-10-18T06:19:53.935Z,30.58
2022-10-18T06:21:26.128Z,30.48
2022-10-18T06:22:57.812Z,31.98
2022-10-18T06:24:30.817Z,34.25
2022-10-18T06:26:04.593Z,29.90
2022-10-18T06:27:36.590Z,32.13
2022-10-18T06:29:08.280Z,30.70
2022-10-18T06:30:40.056Z,28.08
2022-10-18T06:32:11.801Z,31.40
2022-10-18T06:33:43.514Z,32.05
2022-10-18T06:35:15.207Z,28.90
2022-10-18T06:36:46.909Z,28.38
2022-10-18T06:38:18.533Z,31.65
2022-10-18T06:39:51.544Z,31.27
2022-10-18T06:41:23.846Z,29.70
2022-10-18T06:43:00.507Z,32.33
2022-10-18T06:44:42.247Z,30.20
2022-10-18T06:46:13.899Z,29.30
2022-10-18T06:47:45.662Z,30.75
2022-10-18T06:49:19.154Z,30.85
2022-10-18T06:50:52.986Z,32.45
2022-10-18T06:52:25.665Z,30.38
2022-10-18T06:54:16.816Z,34.08
2022-10-18T06:55:50.528Z,35.72
2022-10-18T06:57:22.159Z,32.70
2022-10-18T06:58:53.844Z,34.20
2022-10-18T07:00:25.535Z,37.97
2022-10-18T07:01:57.191Z,36.97
2022-10-18T07:03:29.602Z,35.70
2022-10-18T07:05:01.263Z,35.80
2022-10-18T07:06:32.938Z,34.65
2022-10-18T07:08:05.154Z,34.17
2022-10-18T07:09:36.869Z,34.63
2022-10-18T07:11:14.926Z,40.15
2022-10-18T07:12:46.576Z,35.05
2022-10-18T07:14:18.194Z,33.42
2022-10-18T07:15:59.806Z,39.47
2022-10-18T07:17:31.838Z,36.78
2022-10-18T07:19:03.911Z,33.70
2022-10-18T07:20:35.547Z,33.05
2022-10-18T07:22:07.184Z,31.38
2022-10-18T07:23:41.365Z,34.63
2022-10-18T07:25:13.420Z,34.75
2022-10-18T07:26:46.506Z,32.50
2022-10-18T07:28:18.408Z,33.08
2022-10-18T07:29:50.116Z,33.85
2022-10-18T07:31:22.788Z,34.67
2022-10-18T07:32:54.402Z,32.17
2022-10-18T07:34:26.114Z,30.85
2022-10-18T07:36:02.481Z,33.90
2022-10-18T07:37:34.436Z,32.38
2022-10-18T07:39:06.660Z,36.78
2022-10-18T07:40:38.669Z,37.03
2022-10-18T07:42:11.661Z,33.10
2022-10-18T07:43:45.989Z,35.85
2022-10-18T07:45:17.674Z,35.90
2022-10-18T07:46:49.314Z,35.47
2022-10-18T07:48:21.009Z,36.58
2022-10-18T07:49:52.698Z,34.42
2022-10-18T07:51:24.408Z,35.17
2022-10-18T07:52:56.012Z,35.15
2022-10-18T07:54:27.669Z,36.53
2022-10-18T07:56:01.382Z,43.30
2022-10-18T07:57:36.553Z,33.92
2022-10-18T07:59:10.461Z,36.50
2022-10-18T08:00:42.097Z,31.73
2022-10-18T08:02:13.831Z,34.85
2022-10-18T08:03:45.933Z,34.30
2022-10-18T08:05:17.788Z,34.20
2022-10-18T08:06:49.464Z,32.40
2022-10-18T08:08:22.072Z,35.30
2022-10-18T08:09:53.765Z,34.78
2022-10-18T08:11:26.213Z,36.10
2022-10-18T08:12:59.167Z,35.95
2022-10-18T08:14:30.865Z,37.42
2022-10-18T08:16:05.253Z,35.67
2022-10-18T08:17:36.889Z,39.15
2022-10-18T08:19:08.614Z,40.78
2022-10-18T08:20:43.292Z,43.47
2022-10-18T08:22:15.099Z,39.88
2022-10-18T08:23:48.358Z,36.35
2022-10-18T08:25:19.987Z,39.08
2022-10-18T08:26:51.660Z,39.50
2022-10-18T08:28:24.883Z,42.47
2022-10-18T08:29:56.613Z,40.20
2022-10-18T08:31:28.626Z,38.58
2022-10-18T08:33:00.359Z,38.58
2022-10-18T08:34:32.115Z,39.08
2022-10-18T08:36:06.273Z,39.97
2022-10-18T08:37:38.324Z,39.25
2022-10-18T08:39:09.974Z,43.63
2022-10-18T08:40:43.287Z,41.85
2022-10-18T08:42:34.489Z,42.38
2022-10-18T08:44:16.066Z,44.95
2022-10-18T08:45:49.482Z,45.47
2022-10-18T08:47:24.964Z,44.95
2022-10-18T08:48:57.037Z,46.03
2022-10-18T08:50:35.249Z,47.17
2022-10-18T08:52:14.977Z,44.75
2022-10-18T08:53:54.341Z,44.08
2022-10-18T08:55:29.742Z,43.65
2022-10-18T08:57:04.416Z,46.60
2022-10-18T08:58:36.147Z,51.22
2022-10-18T09:00:16.101Z,49.95
2022-10-18T09:02:00.917Z,54.47
2022-10-18T09:04:01.884Z,54.55
2022-10-18T09:05:45.106Z,54.70
2022-10-18T09:07:36.806Z,62.28
2022-10-18T09:09:25.531Z,68.05
2022-10-18T09:11:07.244Z,70.13
2022-10-18T09:13:02.912Z,74.95
2022-10-18T09:15:03.888Z,68.53
2022-10-18T09:16:43.732Z,69.55
2022-10-18T09:20:07.458Z,69.30
2022-10-18T09:21:49.234Z,68.90
2022-10-18T09:23:23.040Z,67.07
2022-10-18T09:25:02.864Z,69.55
2022-10-18T09:28:16.831Z,65.15
2022-10-18T09:30:03.283Z,73.60
2022-10-18T09:31:43.723Z,75.20
2022-10-18T09:33:33.321Z,75.93
2022-10-18T09:35:14.362Z,83.38
2022-10-18T09:36:46.995Z,88.65
2022-10-18T09:40:03.434Z,89.30
2022-10-18T09:41:41.004Z,95.57
2022-10-18T09:43:18.702Z,97.53
2022-10-18T09:44:55.509Z,100.38
2022-10-18T09:46:32.365Z,97.90
2022-10-18T09:48:12.401Z,92.90
2022-10-18T09:49:47.412Z,96.88
2022-10-18T09:51:22.213Z,94.30
2022-10-18T09:53:01.919Z,95.28
2022-10-18T09:56:11.825Z,95.80
2022-10-18T09:57:47.087Z,98.07
2022-10-18T09:59:38.548Z,96.53
2022-10-18T10:01:13.118Z,102.63
2022-10-18T10:02:45.748Z,103.93
2022-10-18T10:04:18.878Z,100.90
2022-10-18T10:06:02.362Z,103.20
2022-10-18T10:07:41.260Z,97.82
2022-10-18T10:09:16.094Z,108.38
2022-10-18T10:10:48.006Z,100.32
2022-10-18T10:12:28.717Z,100.55
2022-10-18T10:14:09.254Z,100.85
2022-10-18T10:15:46.916Z,101.30
2022-10-18T10:17:24.337Z,102.20
2022-10-18T10:18:56.265Z,109.47
2022-10-18T10:20:35.418Z,106.55
2022-10-18T10:22:10.957Z,116.57
2022-10-18T10:23:46.542Z,108.03
2022-10-18T10:25:25.827Z,107.63
2022-10-18T10:27:03.076Z,110.90
2022-10-18T10:28:43.655Z,99.72
2022-10-18T10:30:25.050Z,100.63
2022-10-18T10:32:03.547Z,99.18
2022-10-18T10:33:36.573Z,104.90
2022-10-18T10:35:35.297Z,105.18
2022-10-18T10:37:26.940Z,95.68
2022-10-18T10:39:07.169Z,95.32
2022-10-18T10:40:47.172Z,89.82
2022-10-18T10:42:18.758Z,87.47
2022-10-18T10:43:51.276Z,88.15
2022-10-18T10:45:25.328Z,88.47
2022-10-18T10:46:57.949Z,82.65
2022-10-18T10:48:33.679Z,76.07
2022-10-18T10:50:11.405Z,66.43
2022-10-18T10:51:43.688Z,67.43
2022-10-18T10:53:28.474Z,68.72
2022-10-18T10:55:06.141Z,58.00
2022-10-18T10:56:57.365Z,54.72
2022-10-18T10:58:36.334Z,56.72
2022-10-18T11:00:37.499Z,53.70
2022-10-18T11:02:21.810Z,54.33
2022-10-18T11:03:55.701Z,51.30
2022-10-18T11:05:29.306Z,42.17
2022-10-18T11:07:06.744Z,41.70
2022-10-18T11:08:41.461Z,43.63
2022-10-18T11:10:16.889Z,44.17
2022-10-18T11:11:59.573Z,45.28
2022-10-18T11:13:50.009Z,47.65
2022-10-18T11:15:30.766Z,50.40
2022-10-18T11:17:14.618Z,45.85
2022-10-18T11:18:49.539Z,45.25
2022-10-18T11:20:27.021Z,45.85
2022-10-18T11:22:02.471Z,44.38
2022-10-18T11:23:37.057Z,43.05
2022-10-18T11:25:14.564Z,45.15
2022-10-18T11:26:53.782Z,44.80
2022-10-18T11:28:38.746Z,43.38
2022-10-18T11:30:37.216Z,44.42
2022-10-18T11:32:18.931Z,47.70
2022-10-18T11:34:09.914Z,39.08
2022-10-18T11:35:47.086Z,40.00
2022-10-18T11:37:38.681Z,38.35
2022-10-18T11:39:19.294Z,39.40
2022-10-18T11:41:19.666Z,38.90
2022-10-18T11:43:00.672Z,38.63
2022-10-18T11:44:38.137Z,38.47
2022-10-18T11:46:18.494Z,41.17
2022-10-18T11:47:58.645Z,48.72
2022-10-18T11:49:49.652Z,42.05
2022-10-18T11:51:44.502Z,37.95
2022-10-18T11:53:32.045Z,37.63
2022-10-18T11:55:27.626Z,37.53
2022-10-18T11:57:13.618Z,37.75
2022-10-18T11:59:10.941Z,37.55
2022-10-18T12:00:49.139Z,36.10
2022-10-18T12:02:40.741Z,34.00
2022-10-18T12:04:20.104Z,34.58
2022-10-18T12:05:53.996Z,35.20
2022-10-18T12:07:32.536Z,36.85
2022-10-18T12:09:14.509Z,33.45
2022-10-18T12:11:04.505Z,35.22
2022-10-18T12:12:41.935Z,34.30
2022-10-18T12:14:27.078Z,36.22
2022-10-18T12:16:00.397Z,31.08
2022-10-18T12:17:44.245Z,33.65
2022-10-18T12:19:26.626Z,33.42
2022-10-18T12:21:00.751Z,32.45
2022-10-18T12:22:36.398Z,33.22
2022-10-18T12:24:12.583Z,29.90
2022-10-18T12:25:50.328Z,31.27
2022-10-18T12:27:32.707Z,31.00
2022-10-18T12:29:17.062Z,29.17
2022-10-18T12:30:55.344Z,30.17
2022-10-18T12:32:32.325Z,26.05
2022-10-18T12:34:19.158Z,28.77
2022-10-18T12:36:00.912Z,27.58
2022-10-18T12:37:53.375Z,28.50
2022-10-18T12:39:38.759Z,29.17
2022-10-18T12:41:20.717Z,28.60
2022-10-18T12:42:53.411Z,26.98
2022-10-18T12:44:31.230Z,26.52
2022-10-18T12:46:08.247Z,29.05
2022-10-18T12:47:42.550Z,25.67
2022-10-18T12:49:20.204Z,27.45
2022-10-18T12:50:59.101Z,24.95
2022-10-18T12:52:37.084Z,29.37
2022-10-18T12:54:11.354Z,27.52
2022-10-18T12:55:44.646Z,25.17
2022-10-18T12:57:23.137Z,25.60
2022-10-18T12:59:48.441Z,23.95
2022-10-18T13:01:20.191Z,26.75
2022-10-18T13:03:30.995Z,26.95
2022-10-18T13:05:55.038Z,23.80
2022-10-18T13:07:43.070Z,21.75
2022-10-18T13:09:20.963Z,22.65
2022-10-18T13:11:24.494Z,22.60
2022-10-18T13:13:35.928Z,19.90
2022-10-18T13:15:25.852Z,21.42
2022-10-18T13:17:04.842Z,21.55
2022-10-18T13:18:52.187Z,19.83
2022-10-18T13:20:32.656Z,20.20
2022-10-18T13:22:19.370Z,20.70
2022-10-18T13:24:06.838Z,21.63
2022-10-18T13:26:01.293Z,21.75
2022-10-18T13:27:44.614Z,23.08
2022-10-18T13:29:44.300Z,20.75
2022-10-18T13:31:21.926Z,23.88
2022-10-18T13:32:58.358Z,22.67
2022-10-18T13:34:34.808Z,20.17
2022-10-18T13:36:24.878Z,23.60
2022-10-18T13:37:59.425Z,20.92
2022-10-18T13:39:33.651Z,20.23
2022-10-18T13:41:07.572Z,20.27
2022-10-18T13:42:39.209Z,19.33
2022-10-18T13:44:22.767Z,21.98
2022-10-18T13:45:56.124Z,21.48
2022-10-18T13:47:36.697Z,21.75
2022-10-18T13:49:31.177Z,21.13
2022-10-18T13:51:17.676Z,17.85
2022-10-18T13:53:09.334Z,19.35
2022-10-18T13:55:01.287Z,19.88
2022-10-18T13:56:52.401Z,19.60
2022-10-18T13:58:33.643Z,20.98
2022-10-18T14:00:29.374Z,22.58
2022-10-18T14:02:36.367Z,17.90
2022-10-18T14:04:44.261Z,20.30
2022-10-18T14:06:19.303Z,19.83
2022-10-18T14:07:53.073Z,21.27
2022-10-18T14:09:44.859Z,16.40
2022-10-18T14:11:27.469Z,21.17
2022-10-18T14:13:02.605Z,19.02
2022-10-18T14:14:41.664Z,19.08
2022-10-18T14:16:28.081Z,19.77
2022-10-18T14:18:07.391Z,20.30
2022-10-18T14:19:42.775Z,20.27
2022-10-18T14:21:26.268Z,17.40
2022-10-18T14:23:04.859Z,20.90
2022-10-18T14:24:40.614Z,18.35
2022-10-18T14:26:14.873Z,23.63
2022-10-18T14:27:50.948Z,21.40
2022-10-18T14:29:25.489Z,17.43
2022-10-18T14:31:02.163Z,19.38
2022-10-18T14:32:34.285Z,29.85
2022-10-18T14:34:06.329Z,21.38
2022-10-18T14:35:39.018Z,18.48
2022-10-18T14:37:20.670Z,19.63
2022-10-18T14:38:55.044Z,19.50
2022-10-18T14:40:34.163Z,22.48
2022-10-18T14:42:05.835Z,17.65
2022-10-18T14:43:38.842Z,19.58
2022-10-18T14:45:17.860Z,22.13
2022-10-18T14:46:51.841Z,23.33
2022-10-18T14:48:23.712Z,22.33
2022-10-18T14:49:57.610Z,22.13
2022-10-18T14:51:33.868Z,18.80
2022-10-18T14:53:07.014Z,22.15
2022-10-18T14:54:38.879Z,25.67
2022-10-18T14:56:22.182Z,21.02
2022-10-18T14:57:54.572Z,21.38
2022-10-18T14:59:29.828Z,22.73
2022-10-18T15:01:01.841Z,21.08
2022-10-18T15:02:37.315Z,21.35
2022-10-18T15:04:11.697Z,21.15
2022-10-18T15:05:54.172Z,15.75
2022-10-18T15:07:29.237Z,23.23
2022-10-18T15:09:04.258Z,18.52
2022-10-18T15:10:36.119Z,19.52
2022-10-18T15:12:08.735Z,18.55
2022-10-18T15:13:48.177Z,21.52
2022-10-18T15:15:27.248Z,20.67
2022-10-18T15:17:01.646Z,20.33
2022-10-18T15:18:33.389Z,22.63
2022-10-18T15:20:20.778Z,25.52
2022-10-18T15:22:19.710Z,26.67
2022-10-18T15:23:48.455Z,21.17
2022-10-18T15:25:27.949Z,19.25
2022-10-18T15:27:14.295Z,21.70
2022-10-18T15:28:53.467Z,21.95
2022-10-18T15:30:28.817Z,18.17
2022-10-18T15:32:07.278Z,22.02
2022-10-18T15:33:38.979Z,20.08
2022-10-18T15:35:25.005Z,17.95
2022-10-18T15:36:57.836Z,20.17
2022-10-18T15:38:32.642Z,19.80
2022-10-18T15:40:35.949Z,16.67
2022-10-18T15:42:34.405Z,15.50
2022-10-18T15:44:11.642Z,15.23
2022-10-18T15:47:25.075Z,13.63
2022-10-18T15:49:19.310Z,12.43
2022-10-18T15:50:53.110Z,14.90
2022-10-18T15:52:38.087Z,12.18
2022-10-18T15:54:17.625Z,12.50
2022-10-18T15:55:51.740Z,14.65
2022-10-18T15:57:26.671Z,15.50
2022-10-18T15:59:03.985Z,20.40
2022-10-18T16:00:35.844Z,14.30
2022-10-18T16:02:14.124Z,14.18
2022-10-18T16:03:47.192Z,16.38
2022-10-18T16:05:20.730Z,13.57
2022-10-18T16:06:52.943Z,17.15
2022-10-18T16:08:26.403Z,12.93
2022-10-18T16:09:58.025Z,15.18
2022-10-18T16:11:29.779Z,13.70
2022-10-18T16:13:01.503Z,15.80
2022-10-18T16:14:33.279Z,15.80
2022-10-18T16:16:05.100Z,13.90
2022-10-18T16:17:38.395Z,13.93
2022-10-18T16:19:13.380Z,10.60
2022-10-18T16:20:45.577Z,17.05
2022-10-18T16:22:19.952Z,16.10
2022-10-18T16:23:51.862Z,18.08
2022-10-18T16:25:23.707Z,14.75
2022-10-18T16:26:55.417Z,13.95
2022-10-18T16:28:28.063Z,15.80
2022-10-18T16:29:59.809Z,19.50
2022-10-18T16:31:33.501Z,17.60
2022-10-18T16:33:07.478Z,15.25
2022-10-18T16:34:39.154Z,14.45
2022-10-18T16:36:14.728Z,16.10
2022-10-18T16:37:46.543Z,14.77
2022-10-18T16:39:20.049Z,14.13
2022-10-18T16:40:51.942Z,18.23
2022-10-18T16:42:23.563Z,17.40
2022-10-18T16:43:55.286Z,17.30
2022-10-18T16:45:26.957Z,13.77
2022-10-18T16:46:58.610Z,15.07
2022-10-18T16:48:32.471Z,15.25
2022-10-18T16:50:08.225Z,15.70
2022-10-18T16:51:40.787Z,14.65
2022-10-18T16:53:12.798Z,14.05
2022-10-18T16:54:44.420Z,18.70
2022-10-18T16:56:18.812Z,17.58
2022-10-18T16:57:51.286Z,13.45
2022-10-18T16:59:26.970Z,15.10
2022-10-18T17:01:01.003Z,21.45
2022-10-18T17:02:34.926Z,14.55
2022-10-18T17:04:08.094Z,16.13
2022-10-18T17:05:39.987Z,13.20
2022-10-18T17:08:58.321Z,15.77
2022-10-18T17:10:30.114Z,18.90
2022-10-18T17:12:01.733Z,15.45
2022-10-18T17:13:33.405Z,14.77
2022-10-18T17:15:06.131Z,14.05
2022-10-18T17:16:38.791Z,13.77
2022-10-18T17:18:13.753Z,17.30
2022-10-18T17:19:47.030Z,17.25
2022-10-18T17:21:19.125Z,15.40
2022-10-18T17:22:50.818Z,14.77
2022-10-18T17:24:22.525Z,17.25
2022-10-18T17:26:05.458Z,19.00
2022-10-18T17:27:40.533Z,18.02
2022-10-18T17:29:12.298Z,20.48
2022-10-18T17:30:44.828Z,17.20
2022-10-18T17:32:16.501Z,18.17
2022-10-18T17:33:48.256Z,15.80
2022-10-18T17:35:22.810Z,15.05
2022-10-18T17:36:54.597Z,17.73
2022-10-18T17:38:26.399Z,16.25
2022-10-18T17:39:58.877Z,14.45
2022-10-18T17:41:30.636Z,16.92
2022-10-18T17:43:02.437Z,15.73
2022-10-18T17:44:34.312Z,20.08
2022-10-18T17:46:06.584Z,15.75
2022-10-18T17:47:38.654Z,16.05
2022-10-18T17:49:10.799Z,14.77
2022-10-18T17:50:43.817Z,13.98
2022-10-18T17:52:15.678Z,13.65
2022-10-18T17:53:47.515Z,15.55
2022-10-18T17:55:19.253Z,16.08
2022-10-18T17:56:53.819Z,14.35
2022-10-18T17:58:26.401Z,15.57
2022-10-18T17:59:59.548Z,15.85
2022-10-18T18:01:31.383Z,13.05
2022-10-18T18:03:03.190Z,17.02
2022-10-18T18:04:34.892Z,19.88
2022-10-18T18:06:18.740Z,17.60
2022-10-18T18:07:50.443Z,15.65
2022-10-18T18:09:22.229Z,21.98
2022-10-18T18:10:54.820Z,25.77
2022-10-18T18:12:26.988Z,18.10
2022-10-18T18:13:58.933Z,18.38
2022-10-18T18:15:30.783Z,16.58
2022-10-18T18:17:02.624Z,17.75
2022-10-18T18:18:34.325Z,21.52
2022-10-18T18:20:07.161Z,17.30
2022-10-18T18:21:41.086Z,19.05
2022-10-18T18:23:12.852Z,22.85
2022-10-18T18:24:44.700Z,18.05
2022-10-18T18:26:17.030Z,18.95
2022-10-18T18:27:48.715Z,23.05
2022-10-18T18:29:20.858Z,20.67
2022-10-18T18:30:52.591Z,19.90
2022-10-18T18:32:24.259Z,18.88
2022-10-18T18:33:57.853Z,21.30
2022-10-18T18:35:29.579Z,18.83
2022-10-18T18:37:02.785Z,22.75
2022-10-18T18:38:36.599Z,18.50
2022-10-18T18:40:08.969Z,20.33
2022-10-18T18:41:41.087Z,21.13
2022-10-18T18:43:23.003Z,24.48
2022-10-18T18:44:55.123Z,22.45
2022-10-18T18:46:28.180Z,15.95
2022-10-18T18:47:59.879Z,18.63
2022-10-18T18:49:32.068Z,17.95
2022-10-18T18:51:05.711Z,22.13
2022-10-18T18:52:38.888Z,18.17
2022-10-18T18:54:14.682Z,21.45
2022-10-18T18:55:47.676Z,22.48
2022-10-18T18:57:19.695Z,21.10
2022-10-18T18:58:51.881Z,22.45
2022-10-18T19:00:23.627Z,21.77
2022-10-18T19:01:55.469Z,19.50
2022-10-18T19:03:27.345Z,21.63
2022-10-18T19:04:59.008Z,24.02
2022-10-18T19:06:33.763Z,20.85
2022-10-18T19:08:06.896Z,22.55
2022-10-18T19:09:39.270Z,25.35
2022-10-18T19:11:14.735Z,21.45
2022-10-18T19:12:46.404Z,20.25
2022-10-18T19:14:18.231Z,23.70
2022-10-18T19:15:50.085Z,19.67
2022-10-18T19:17:25.926Z,24.55
2022-10-18T19:18:59.964Z,21.80
2022-10-18T19:20:31.637Z,18.60
2022-10-18T19:22:09.501Z,21.38
2022-10-18T19:23:42.633Z,20.80
2022-10-18T19:25:14.329Z,18.50
2022-10-18T19:26:48.524Z,21.95
2022-10-18T19:28:20.767Z,19.52
2022-10-18T19:29:52.485Z,16.42
2022-10-18T19:31:24.478Z,17.52
2022-10-18T19:33:02.804Z,18.27
2022-10-18T19:34:35.654Z,21.02
2022-10-18T19:36:08.734Z,19.77
2022-10-18T19:37:40.760Z,19.35
2022-10-18T19:39:18.197Z,20.67
2022-10-18T19:40:53.633Z,18.77
2022-10-18T19:42:28.950Z,24.08
2022-10-18T19:44:03.271Z,17.77
2022-10-18T19:45:35.012Z,16.92
2022-10-18T19:47:08.323Z,20.30
2022-10-18T19:48:40.207Z,18.73
2022-10-18T19:50:12.046Z,17.58
2022-10-18T19:51:47.080Z,19.02
2022-10-18T19:53:18.870Z,19.05
2022-10-18T19:54:51.874Z,16.38
2022-10-18T19:56:25.060Z,17.60
2022-10-18T19:57:57.022Z,18.27
2022-10-18T19:59:28.954Z,16.98
2022-10-18T20:01:02.285Z,19.35
2022-10-18T20:02:34.305Z,15.60
2022-10-18T20:04:08.393Z,20.30
2022-10-18T20:05:40.129Z,20.23
2022-10-18T20:07:11.813Z,18.92
2022-10-18T20:08:44.028Z,17.75
2022-10-18T20:10:17.361Z,18.92
2022-10-18T20:11:49.262Z,18.25
2022-10-18T20:13:28.746Z,18.90
2022-10-18T20:15:00.427Z,15.60
2022-10-18T20:16:33.788Z,18.65
2022-10-18T20:18:05.469Z,19.48
2022-10-18T20:19:37.099Z,19.60
2022-10-18T20:21:11.061Z,19.85
2022-10-18T20:22:42.721Z,19.50
2022-10-18T20:24:14.511Z,14.93
2022-10-18T20:25:57.492Z,15.93
2022-10-18T20:27:30.611Z,17.83
2022-10-18T20:29:03.329Z,18.75
2022-10-18T20:30:35.144Z,14.70
2022-10-18T20:32:06.802Z,14.73
2022-10-18T20:33:39.048Z,19.33
2022-10-18T20:35:10.825Z,18.70
2022-10-18T20:36:42.975Z,19.23
2022-10-18T20:38:14.663Z,16.65
2022-10-18T20:39:46.712Z,14.48
2022-10-18T20:41:22.859Z,19.48
2022-10-18T20:42:54.532Z,15.80
2022-10-18T20:44:27.012Z,14.98
2022-10-18T20:45:59.076Z,15.65